sensor_id;sensor_type;location;lat;lon;timestamp;temperature;humidity
81800;DHT22;71195;52.528;5.704;2023-09-12T00:01:13;22.00;67.90
81800;DHT22;71195;52.528;5.704;2023-09-12T00:03:42;22.00;68.00
81800;DHT22;71195;52.528;5.704;2023-09-12T00:06:12;22.00;68.00
81800;DHT22;71195;52.528;5.704;2023-09-12T00:08:43;22.00;68.10
81800;DHT22;71195;52.528;5.704;2023-09-12T00:11:12;22.00;68.10
81800;DHT22;71195;52.528;5.704;2023-09-12T00:13:42;22.00;68.20
81800;DHT22;71195;52.528;5.704;2023-09-12T00:16:11;21.90;68.20
81800;DHT22;71195;52.528;5.704;2023-09-12T00:18:40;21.90;68.20
81800;DHT22;71195;52.528;5.704;2023-09-12T00:21:10;21.90;68.20
81800;DHT22;71195;52.528;5.704;2023-09-12T00:23:39;21.90;68.30
81800;DHT22;71195;52.528;5.704;2023-09-12T00:26:11;21.90;68.30
81800;DHT22;71195;52.528;5.704;2023-09-12T00:28:41;21.90;68.40
81800;DHT22;71195;52.528;5.704;2023-09-12T00:31:10;21.90;68.40
81800;DHT22;71195;52.528;5.704;2023-09-12T00:33:40;21.90;68.40
81800;DHT22;71195;52.528;5.704;2023-09-12T00:36:09;21.80;68.50
81800;DHT22;71195;52.528;5.704;2023-09-12T00:38:38;21.80;68.50
81800;DHT22;71195;52.528;5.704;2023-09-12T00:41:10;21.80;68.50
81800;DHT22;71195;52.528;5.704;2023-09-12T00:43:39;21.70;68.60
81800;DHT22;71195;52.528;5.704;2023-09-12T00:46:08;21.70;68.60
81800;DHT22;71195;52.528;5.704;2023-09-12T00:48:41;21.70;68.60
81800;DHT22;71195;52.528;5.704;2023-09-12T00:51:10;21.70;68.60
81800;DHT22;71195;52.528;5.704;2023-09-12T00:53:40;21.70;68.60
81800;DHT22;71195;52.528;5.704;2023-09-12T00:56:15;21.60;68.60
81800;DHT22;71195;52.528;5.704;2023-09-12T00:58:44;21.50;68.60
81800;DHT22;71195;52.528;5.704;2023-09-12T01:01:17;21.50;68.60
81800;DHT22;71195;52.528;5.704;2023-09-12T01:03:47;21.50;68.60
81800;DHT22;71195;52.528;5.704;2023-09-12T01:06:19;21.50;68.60
81800;DHT22;71195;52.528;5.704;2023-09-12T01:08:48;21.40;68.70
81800;DHT22;71195;52.528;5.704;2023-09-12T01:11:20;21.40;68.70
81800;DHT22;71195;52.528;5.704;2023-09-12T01:13:49;21.40;68.90
81800;DHT22;71195;52.528;5.704;2023-09-12T01:16:19;21.30;68.80
81800;DHT22;71195;52.528;5.704;2023-09-12T01:18:48;21.30;68.70
81800;DHT22;71195;52.528;5.704;2023-09-12T01:21:48;21.30;68.90
81800;DHT22;71195;52.528;5.704;2023-09-12T01:27:27;21.10;68.90
81800;DHT22;71195;52.528;5.704;2023-09-12T01:29:57;21.10;68.80
81800;DHT22;71195;52.528;5.704;2023-09-12T01:32:30;21.10;68.70
81800;DHT22;71195;52.528;5.704;2023-09-12T01:35:00;21.10;68.80
81800;DHT22;71195;52.528;5.704;2023-09-12T01:37:30;21.10;68.80
81800;DHT22;71195;52.528;5.704;2023-09-12T01:39:59;21.00;68.80
81800;DHT22;71195;52.528;5.704;2023-09-12T01:42:36;21.00;68.70
81800;DHT22;71195;52.528;5.704;2023-09-12T01:45:09;20.90;68.70
81800;DHT22;71195;52.528;5.704;2023-09-12T01:47:40;20.90;68.80
81800;DHT22;71195;52.528;5.704;2023-09-12T01:50:12;20.80;68.90
81800;DHT22;71195;52.528;5.704;2023-09-12T01:52:43;20.80;69.00
81800;DHT22;71195;52.528;5.704;2023-09-12T01:55:13;20.80;69.10
81800;DHT22;71195;52.528;5.704;2023-09-12T01:57:46;20.70;69.10
81800;DHT22;71195;52.528;5.704;2023-09-12T02:00:18;20.70;69.10
81800;DHT22;71195;52.528;5.704;2023-09-12T02:02:48;20.70;69.10
81800;DHT22;71195;52.528;5.704;2023-09-12T02:05:18;20.70;69.00
81800;DHT22;71195;52.528;5.704;2023-09-12T02:07:49;20.60;69.10
81800;DHT22;71195;52.528;5.704;2023-09-12T02:10:18;20.60;69.00
81800;DHT22;71195;52.528;5.704;2023-09-12T02:12:50;20.60;69.00
81800;DHT22;71195;52.528;5.704;2023-09-12T02:15:19;20.60;69.10
81800;DHT22;71195;52.528;5.704;2023-09-12T02:17:48;20.50;69.10
81800;DHT22;71195;52.528;5.704;2023-09-12T02:20:18;20.50;69.20
81800;DHT22;71195;52.528;5.704;2023-09-12T02:22:48;20.50;69.10
81800;DHT22;71195;52.528;5.704;2023-09-12T02:25:18;20.50;69.10
81800;DHT22;71195;52.528;5.704;2023-09-12T02:27:50;20.50;69.10
81800;DHT22;71195;52.528;5.704;2023-09-12T02:30:19;20.50;69.20
81800;DHT22;71195;52.528;5.704;2023-09-12T02:32:49;20.50;69.30
81800;DHT22;71195;52.528;5.704;2023-09-12T02:35:18;20.50;69.30
81800;DHT22;71195;52.528;5.704;2023-09-12T02:37:47;20.40;69.30
81800;DHT22;71195;52.528;5.704;2023-09-12T02:40:17;20.40;69.30
81800;DHT22;71195;52.528;5.704;2023-09-12T02:42:46;20.40;69.40
81800;DHT22;71195;52.528;5.704;2023-09-12T02:45:18;20.30;69.50
81800;DHT22;71195;52.528;5.704;2023-09-12T02:47:47;20.30;69.50
81800;DHT22;71195;52.528;5.704;2023-09-12T02:50:17;20.30;69.50
81800;DHT22;71195;52.528;5.704;2023-09-12T02:52:46;20.30;69.50
81800;DHT22;71195;52.528;5.704;2023-09-12T02:55:15;20.30;69.40
81800;DHT22;71195;52.528;5.704;2023-09-12T02:57:45;20.30;69.40
81800;DHT22;71195;52.528;5.704;2023-09-12T03:00:14;20.30;69.40
81800;DHT22;71195;52.528;5.704;2023-09-12T03:02:46;20.30;69.40
81800;DHT22;71195;52.528;5.704;2023-09-12T03:05:16;20.30;69.40
81800;DHT22;71195;52.528;5.704;2023-09-12T03:07:45;20.20;69.30
81800;DHT22;71195;52.528;5.704;2023-09-12T03:10:15;20.20;69.40
81800;DHT22;71195;52.528;5.704;2023-09-12T03:12:44;20.10;69.30
81800;DHT22;71195;52.528;5.704;2023-09-12T03:15:14;20.10;69.40
81800;DHT22;71195;52.528;5.704;2023-09-12T03:17:46;20.10;69.50
81800;DHT22;71195;52.528;5.704;2023-09-12T03:20:15;20.10;69.50
81800;DHT22;71195;52.528;5.704;2023-09-12T03:22:46;20.00;69.60
81800;DHT22;71195;52.528;5.704;2023-09-12T03:25:15;20.00;69.60
81800;DHT22;71195;52.528;5.704;2023-09-12T03:27:44;20.00;69.70
81800;DHT22;71195;52.528;5.704;2023-09-12T03:30:14;20.00;69.80
81800;DHT22;71195;52.528;5.704;2023-09-12T03:32:46;20.00;69.90
81800;DHT22;71195;52.528;5.704;2023-09-12T03:35:15;20.00;69.90
81800;DHT22;71195;52.528;5.704;2023-09-12T03:37:44;19.90;70.00
81800;DHT22;71195;52.528;5.704;2023-09-12T03:40:13;19.90;70.10
81800;DHT22;71195;52.528;5.704;2023-09-12T03:42:43;19.90;70.10
81800;DHT22;71195;52.528;5.704;2023-09-12T03:45:12;19.90;70.10
81800;DHT22;71195;52.528;5.704;2023-09-12T03:47:41;19.90;70.10
81800;DHT22;71195;52.528;5.704;2023-09-12T03:50:15;19.90;70.10
81800;DHT22;71195;52.528;5.704;2023-09-12T03:52:45;19.90;70.20
81800;DHT22;71195;52.528;5.704;2023-09-12T03:55:14;19.90;70.10
81800;DHT22;71195;52.528;5.704;2023-09-12T03:57:43;19.90;70.10
81800;DHT22;71195;52.528;5.704;2023-09-12T04:00:15;19.90;70.10
81800;DHT22;71195;52.528;5.704;2023-09-12T04:02:47;19.90;70.10
81800;DHT22;71195;52.528;5.704;2023-09-12T04:05:19;19.80;70.00
81800;DHT22;71195;52.528;5.704;2023-09-12T04:07:49;19.80;70.00
81800;DHT22;71195;52.528;5.704;2023-09-12T04:10:19;19.70;70.00
81800;DHT22;71195;52.528;5.704;2023-09-12T04:12:48;19.70;70.00
81800;DHT22;71195;52.528;5.704;2023-09-12T04:15:18;19.70;70.10
81800;DHT22;71195;52.528;5.704;2023-09-12T04:17:47;19.70;70.10
81800;DHT22;71195;52.528;5.704;2023-09-12T04:20:19;19.70;70.20
81800;DHT22;71195;52.528;5.704;2023-09-12T04:22:49;19.70;70.20
81800;DHT22;71195;52.528;5.704;2023-09-12T04:25:18;19.70;70.20
81800;DHT22;71195;52.528;5.704;2023-09-12T04:27:48;19.60;70.30
81800;DHT22;71195;52.528;5.704;2023-09-12T04:30:17;19.60;70.40
81800;DHT22;71195;52.528;5.704;2023-09-12T04:32:47;19.50;70.40
81800;DHT22;71195;52.528;5.704;2023-09-12T04:35:19;19.50;70.40
81800;DHT22;71195;52.528;5.704;2023-09-12T04:37:48;19.60;70.40
81800;DHT22;71195;52.528;5.704;2023-09-12T04:40:18;19.60;70.40
81800;DHT22;71195;52.528;5.704;2023-09-12T04:42:47;19.60;70.40
81800;DHT22;71195;52.528;5.704;2023-09-12T04:45:16;19.60;70.40
81800;DHT22;71195;52.528;5.704;2023-09-12T04:47:45;19.60;70.40
81800;DHT22;71195;52.528;5.704;2023-09-12T04:50:15;19.60;70.40
81800;DHT22;71195;52.528;5.704;2023-09-12T04:52:47;19.70;70.40
81800;DHT22;71195;52.528;5.704;2023-09-12T04:55:16;19.70;70.40
81800;DHT22;71195;52.528;5.704;2023-09-12T04:57:45;19.70;70.40
81800;DHT22;71195;52.528;5.704;2023-09-12T05:00:15;19.70;70.40
81800;DHT22;71195;52.528;5.704;2023-09-12T05:02:44;19.70;70.50
81800;DHT22;71195;52.528;5.704;2023-09-12T05:05:14;19.70;70.40
81800;DHT22;71195;52.528;5.704;2023-09-12T05:07:43;19.70;70.50
81800;DHT22;71195;52.528;5.704;2023-09-12T05:10:15;19.70;70.50
81800;DHT22;71195;52.528;5.704;2023-09-12T05:12:45;19.70;70.60
81800;DHT22;71195;52.528;5.704;2023-09-12T05:15:14;19.70;70.50
81800;DHT22;71195;52.528;5.704;2023-09-12T05:17:43;19.70;70.60
81800;DHT22;71195;52.528;5.704;2023-09-12T05:20:13;19.70;70.70
81800;DHT22;71195;52.528;5.704;2023-09-12T05:22:42;19.70;70.70
81800;DHT22;71195;52.528;5.704;2023-09-12T05:25:11;19.70;70.70
81800;DHT22;71195;52.528;5.704;2023-09-12T05:27:43;19.80;70.70
81800;DHT22;71195;52.528;5.704;2023-09-12T05:30:12;19.80;70.80
81800;DHT22;71195;52.528;5.704;2023-09-12T05:32:42;19.80;70.70
81800;DHT22;71195;52.528;5.704;2023-09-12T05:35:11;19.80;70.80
81800;DHT22;71195;52.528;5.704;2023-09-12T05:37:41;19.80;70.80
81800;DHT22;71195;52.528;5.704;2023-09-12T05:40:10;19.80;70.90
81800;DHT22;71195;52.528;5.704;2023-09-12T05:42:39;19.80;70.90
81800;DHT22;71195;52.528;5.704;2023-09-12T05:45:12;19.90;70.90
81800;DHT22;71195;52.528;5.704;2023-09-12T05:47:41;19.90;70.90
81800;DHT22;71195;52.528;5.704;2023-09-12T05:50:11;19.90;71.00
81800;DHT22;71195;52.528;5.704;2023-09-12T05:52:40;19.90;70.90
81800;DHT22;71195;52.528;5.704;2023-09-12T05:55:12;20.00;70.90
81800;DHT22;71195;52.528;5.704;2023-09-12T05:57:41;20.00;70.90
81800;DHT22;71195;52.528;5.704;2023-09-12T06:00:14;20.00;70.90
81800;DHT22;71195;52.528;5.704;2023-09-12T06:02:44;20.00;70.90
81800;DHT22;71195;52.528;5.704;2023-09-12T06:05:14;20.00;70.80
81800;DHT22;71195;52.528;5.704;2023-09-12T06:07:43;20.00;70.80
81800;DHT22;71195;52.528;5.704;2023-09-12T06:10:13;20.00;70.90
81800;DHT22;71195;52.528;5.704;2023-09-12T06:12:42;20.10;70.90
81800;DHT22;71195;52.528;5.704;2023-09-12T06:15:14;20.00;71.00
81800;DHT22;71195;52.528;5.704;2023-09-12T06:17:43;20.10;71.00
81800;DHT22;71195;52.528;5.704;2023-09-12T06:20:12;20.10;70.80
81800;DHT22;71195;52.528;5.704;2023-09-12T06:22:41;20.10;70.80
81800;DHT22;71195;52.528;5.704;2023-09-12T06:25:11;20.30;70.70
81800;DHT22;71195;52.528;5.704;2023-09-12T06:27:40;20.30;70.70
81800;DHT22;71195;52.528;5.704;2023-09-12T06:30:13;20.30;70.80
81800;DHT22;71195;52.528;5.704;2023-09-12T06:32:42;20.30;70.80
81800;DHT22;71195;52.528;5.704;2023-09-12T06:35:12;20.40;70.90
81800;DHT22;71195;52.528;5.704;2023-09-12T06:37:41;20.50;70.90
81800;DHT22;71195;52.528;5.704;2023-09-12T06:40:11;20.50;70.80
81800;DHT22;71195;52.528;5.704;2023-09-12T06:42:42;20.50;70.80
81800;DHT22;71195;52.528;5.704;2023-09-12T06:45:14;20.60;70.80
81800;DHT22;71195;52.528;5.704;2023-09-12T06:47:43;20.60;70.80
81800;DHT22;71195;52.528;5.704;2023-09-12T06:50:13;20.70;70.80
81800;DHT22;71195;52.528;5.704;2023-09-12T06:52:42;20.70;70.90
81800;DHT22;71195;52.528;5.704;2023-09-12T06:55:11;20.80;70.90
81800;DHT22;71195;52.528;5.704;2023-09-12T06:57:41;20.80;70.90
81800;DHT22;71195;52.528;5.704;2023-09-12T07:00:14;20.90;70.90
81800;DHT22;71195;52.528;5.704;2023-09-12T07:02:44;21.00;70.90
81800;DHT22;71195;52.528;5.704;2023-09-12T07:05:13;21.00;70.80
81800;DHT22;71195;52.528;5.704;2023-09-12T07:07:42;21.10;70.90
81800;DHT22;71195;52.528;5.704;2023-09-12T07:10:11;21.10;70.90
81800;DHT22;71195;52.528;5.704;2023-09-12T07:12:40;21.10;71.00
81800;DHT22;71195;52.528;5.704;2023-09-12T07:15:10;21.20;71.00
81800;DHT22;71195;52.528;5.704;2023-09-12T07:17:42;21.30;70.90
81800;DHT22;71195;52.528;5.704;2023-09-12T07:20:12;21.30;70.90
81800;DHT22;71195;52.528;5.704;2023-09-12T07:22:42;21.40;70.80
81800;DHT22;71195;52.528;5.704;2023-09-12T07:25:11;21.40;70.70
81800;DHT22;71195;52.528;5.704;2023-09-12T07:27:41;21.40;70.80
81800;DHT22;71195;52.528;5.704;2023-09-12T07:30:10;21.40;70.90
81800;DHT22;71195;52.528;5.704;2023-09-12T07:32:42;21.50;70.80
81800;DHT22;71195;52.528;5.704;2023-09-12T07:35:11;21.50;70.80
81800;DHT22;71195;52.528;5.704;2023-09-12T07:37:41;21.60;70.70
81800;DHT22;71195;52.528;5.704;2023-09-12T07:40:11;21.70;70.60
81800;DHT22;71195;52.528;5.704;2023-09-12T07:42:40;21.70;70.60
81800;DHT22;71195;52.528;5.704;2023-09-12T07:45:10;21.70;70.50
81800;DHT22;71195;52.528;5.704;2023-09-12T07:47:42;21.80;70.50
81800;DHT22;71195;52.528;5.704;2023-09-12T07:50:11;21.90;70.40
81800;DHT22;71195;52.528;5.704;2023-09-12T07:52:41;21.90;70.40
81800;DHT22;71195;52.528;5.704;2023-09-12T07:55:10;21.90;70.50
81800;DHT22;71195;52.528;5.704;2023-09-12T07:57:39;21.90;70.40
81800;DHT22;71195;52.528;5.704;2023-09-12T08:00:10;22.00;70.30
81800;DHT22;71195;52.528;5.704;2023-09-12T08:02:42;22.00;70.20
81800;DHT22;71195;52.528;5.704;2023-09-12T08:05:11;22.10;70.20
81800;DHT22;71195;52.528;5.704;2023-09-12T08:07:41;22.10;70.10
81800;DHT22;71195;52.528;5.704;2023-09-12T08:10:10;22.10;70.20
81800;DHT22;71195;52.528;5.704;2023-09-12T08:12:39;22.20;70.20
81800;DHT22;71195;52.528;5.704;2023-09-12T08:15:09;22.20;70.20
81800;DHT22;71195;52.528;5.704;2023-09-12T08:17:41;22.20;70.20
81800;DHT22;71195;52.528;5.704;2023-09-12T08:20:11;22.20;70.10
81800;DHT22;71195;52.528;5.704;2023-09-12T08:22:40;22.30;70.10
81800;DHT22;71195;52.528;5.704;2023-09-12T08:25:10;22.30;70.10
81800;DHT22;71195;52.528;5.704;2023-09-12T08:27:40;22.30;70.00
81800;DHT22;71195;52.528;5.704;2023-09-12T08:30:12;22.50;70.00
81800;DHT22;71195;52.528;5.704;2023-09-12T08:32:44;22.50;70.00
81800;DHT22;71195;52.528;5.704;2023-09-12T08:35:14;22.60;70.00
81800;DHT22;71195;52.528;5.704;2023-09-12T08:37:43;22.60;70.00
81800;DHT22;71195;52.528;5.704;2023-09-12T08:40:12;22.70;69.90
81800;DHT22;71195;52.528;5.704;2023-09-12T08:42:43;22.90;69.80
81800;DHT22;71195;52.528;5.704;2023-09-12T08:45:14;23.00;69.80
81800;DHT22;71195;52.528;5.704;2023-09-12T08:47:50;23.10;69.70
81800;DHT22;71195;52.528;5.704;2023-09-12T08:50:20;23.20;69.70
81800;DHT22;71195;52.528;5.704;2023-09-12T08:52:51;23.30;69.50
81800;DHT22;71195;52.528;5.704;2023-09-12T08:55:20;23.30;69.50
81800;DHT22;71195;52.528;5.704;2023-09-12T08:57:50;23.40;69.50
81800;DHT22;71195;52.528;5.704;2023-09-12T09:00:20;23.40;69.60
81800;DHT22;71195;52.528;5.704;2023-09-12T09:02:53;23.40;69.60
81800;DHT22;71195;52.528;5.704;2023-09-12T09:05:25;23.50;69.50
81800;DHT22;71195;52.528;5.704;2023-09-12T09:07:55;23.60;69.50
81800;DHT22;71195;52.528;5.704;2023-09-12T09:10:24;23.60;69.50
81800;DHT22;71195;52.528;5.704;2023-09-12T09:12:58;23.70;69.40
81800;DHT22;71195;52.528;5.704;2023-09-12T09:15:29;23.70;69.40
81800;DHT22;71195;52.528;5.704;2023-09-12T09:18:02;23.70;69.40
81800;DHT22;71195;52.528;5.704;2023-09-12T09:20:33;23.80;69.30
81800;DHT22;71195;52.528;5.704;2023-09-12T09:23:04;23.80;69.30
81800;DHT22;71195;52.528;5.704;2023-09-12T09:25:36;23.90;69.20
81800;DHT22;71195;52.528;5.704;2023-09-12T09:28:16;24.00;69.10
81800;DHT22;71195;52.528;5.704;2023-09-12T09:30:47;24.00;69.10
81800;DHT22;71195;52.528;5.704;2023-09-12T09:33:20;24.20;68.90
81800;DHT22;71195;52.528;5.704;2023-09-12T09:35:49;24.20;68.90
81800;DHT22;71195;52.528;5.704;2023-09-12T09:38:20;24.40;68.70
81800;DHT22;71195;52.528;5.704;2023-09-12T09:40:49;24.40;68.60
81800;DHT22;71195;52.528;5.704;2023-09-12T09:43:20;24.40;68.60
81800;DHT22;71195;52.528;5.704;2023-09-12T09:45:51;24.40;68.60
81800;DHT22;71195;52.528;5.704;2023-09-12T09:48:24;24.40;68.60
81800;DHT22;71195;52.528;5.704;2023-09-12T09:51:00;24.50;68.40
81800;DHT22;71195;52.528;5.704;2023-09-12T09:53:30;24.70;68.10
81800;DHT22;71195;52.528;5.704;2023-09-12T09:56:11;24.90;67.80
81800;DHT22;71195;52.528;5.704;2023-09-12T09:58:46;25.10;67.50
81800;DHT22;71195;52.528;5.704;2023-09-12T10:01:18;25.30;67.20
81800;DHT22;71195;52.528;5.704;2023-09-12T10:03:51;25.50;66.90
81800;DHT22;71195;52.528;5.704;2023-09-12T10:06:21;25.70;66.60
81800;DHT22;71195;52.528;5.704;2023-09-12T10:08:52;25.80;66.50
81800;DHT22;71195;52.528;5.704;2023-09-12T10:11:23;25.80;66.30
81800;DHT22;71195;52.528;5.704;2023-09-12T10:13:54;25.80;66.30
81800;DHT22;71195;52.528;5.704;2023-09-12T10:16:24;25.90;66.20
81800;DHT22;71195;52.528;5.704;2023-09-12T10:19:07;26.00;66.10
81800;DHT22;71195;52.528;5.704;2023-09-12T10:21:37;26.00;66.10
81800;DHT22;71195;52.528;5.704;2023-09-12T10:24:11;26.10;66.00
81800;DHT22;71195;52.528;5.704;2023-09-12T10:26:41;26.20;65.90
81800;DHT22;71195;52.528;5.704;2023-09-12T10:29:13;26.40;65.70
81800;DHT22;71195;52.528;5.704;2023-09-12T10:31:43;26.40;65.40
81800;DHT22;71195;52.528;5.704;2023-09-12T10:34:15;26.60;65.30
81800;DHT22;71195;52.528;5.704;2023-09-12T10:36:45;26.80;65.00
81800;DHT22;71195;52.528;5.704;2023-09-12T10:39:15;26.90;64.80
81800;DHT22;71195;52.528;5.704;2023-09-12T10:41:44;27.00;64.70
81800;DHT22;71195;52.528;5.704;2023-09-12T10:44:16;27.10;64.70
81800;DHT22;71195;52.528;5.704;2023-09-12T10:46:46;27.00;64.70
81800;DHT22;71195;52.528;5.704;2023-09-12T10:49:18;27.00;64.60
81800;DHT22;71195;52.528;5.704;2023-09-12T10:51:48;27.00;64.50
81800;DHT22;71195;52.528;5.704;2023-09-12T10:54:24;26.90;64.50
81800;DHT22;71195;52.528;5.704;2023-09-12T10:57:04;26.90;64.50
81800;DHT22;71195;52.528;5.704;2023-09-12T10:59:34;27.20;64.20
81800;DHT22;71195;52.528;5.704;2023-09-12T11:04:51;27.50;63.80
81800;DHT22;71195;52.528;5.704;2023-09-12T11:07:44;27.80;63.60
81800;DHT22;71195;52.528;5.704;2023-09-12T11:10:21;28.00;63.20
81800;DHT22;71195;52.528;5.704;2023-09-12T11:12:51;28.10;62.90
81800;DHT22;71195;52.528;5.704;2023-09-12T11:15:22;28.20;62.80
81800;DHT22;71195;52.528;5.704;2023-09-12T11:18:00;28.30;62.50
81800;DHT22;71195;52.528;5.704;2023-09-12T11:20:52;28.30;62.20
81800;DHT22;71195;52.528;5.704;2023-09-12T11:23:21;28.30;62.10
81800;DHT22;71195;52.528;5.704;2023-09-12T11:26:03;28.40;62.20
81800;DHT22;71195;52.528;5.704;2023-09-12T11:28:34;28.60;61.70
81800;DHT22;71195;52.528;5.704;2023-09-12T11:31:04;28.70;61.70
81800;DHT22;71195;52.528;5.704;2023-09-12T11:33:33;28.90;61.50
81800;DHT22;71195;52.528;5.704;2023-09-12T11:36:05;29.00;61.20
81800;DHT22;71195;52.528;5.704;2023-09-12T11:38:37;29.10;61.00
81800;DHT22;71195;52.528;5.704;2023-09-12T11:41:06;29.10;60.90
81800;DHT22;71195;52.528;5.704;2023-09-12T11:43:37;29.00;60.80
81800;DHT22;71195;52.528;5.704;2023-09-12T11:46:07;29.10;60.60
81800;DHT22;71195;52.528;5.704;2023-09-12T11:48:38;29.20;60.60
81800;DHT22;71195;52.528;5.704;2023-09-12T11:51:10;29.20;60.50
81800;DHT22;71195;52.528;5.704;2023-09-12T11:53:42;29.20;60.30
81800;DHT22;71195;52.528;5.704;2023-09-12T11:56:13;29.10;60.10
81800;DHT22;71195;52.528;5.704;2023-09-12T11:58:43;29.00;60.10
81800;DHT22;71195;52.528;5.704;2023-09-12T12:01:12;28.90;60.10
81800;DHT22;71195;52.528;5.704;2023-09-12T12:03:42;28.90;60.10
81800;DHT22;71195;52.528;5.704;2023-09-12T12:06:13;28.90;60.20
81800;DHT22;71195;52.528;5.704;2023-09-12T12:08:43;28.90;60.00
81800;DHT22;71195;52.528;5.704;2023-09-12T12:11:12;28.90;59.80
81800;DHT22;71195;52.528;5.704;2023-09-12T12:13:41;29.20;59.50
81800;DHT22;71195;52.528;5.704;2023-09-12T12:16:17;29.40;59.30
81800;DHT22;71195;52.528;5.704;2023-09-12T12:18:46;29.40;59.20
81800;DHT22;71195;52.528;5.704;2023-09-12T12:21:23;29.40;59.20
81800;DHT22;71195;52.528;5.704;2023-09-12T12:24:00;29.30;59.30
81800;DHT22;71195;52.528;5.704;2023-09-12T12:26:30;29.20;59.30
81800;DHT22;71195;52.528;5.704;2023-09-12T12:29:00;29.10;59.40
81800;DHT22;71195;52.528;5.704;2023-09-12T12:31:29;29.10;59.30
81800;DHT22;71195;52.528;5.704;2023-09-12T12:33:59;29.00;59.20
81800;DHT22;71195;52.528;5.704;2023-09-12T12:36:32;29.00;59.10
81800;DHT22;71195;52.528;5.704;2023-09-12T12:39:01;29.00;59.10
81800;DHT22;71195;52.528;5.704;2023-09-12T12:41:31;29.00;59.10
81800;DHT22;71195;52.528;5.704;2023-09-12T12:44:01;29.00;58.90
81800;DHT22;71195;52.528;5.704;2023-09-12T12:46:31;29.00;58.90
81800;DHT22;71195;52.528;5.704;2023-09-12T12:49:00;29.10;58.90
81800;DHT22;71195;52.528;5.704;2023-09-12T12:51:33;29.10;58.90
81800;DHT22;71195;52.528;5.704;2023-09-12T12:54:04;29.10;58.80
81800;DHT22;71195;52.528;5.704;2023-09-12T12:56:34;29.10;58.90
81800;DHT22;71195;52.528;5.704;2023-09-12T12:59:05;29.10;58.90
81800;DHT22;71195;52.528;5.704;2023-09-12T13:01:35;29.10;58.90
81800;DHT22;71195;52.528;5.704;2023-09-12T13:04:06;29.00;58.90
81800;DHT22;71195;52.528;5.704;2023-09-12T13:06:38;29.00;59.00
81800;DHT22;71195;52.528;5.704;2023-09-12T13:09:09;28.90;59.00
81800;DHT22;71195;52.528;5.704;2023-09-12T13:11:41;28.90;59.00
81800;DHT22;71195;52.528;5.704;2023-09-12T13:14:10;28.90;58.90
81800;DHT22;71195;52.528;5.704;2023-09-12T13:16:39;29.00;58.70
81800;DHT22;71195;52.528;5.704;2023-09-12T13:19:09;29.20;58.50
81800;DHT22;71195;52.528;5.704;2023-09-12T13:21:42;29.20;58.40
81800;DHT22;71195;52.528;5.704;2023-09-12T13:24:11;29.20;58.20
81800;DHT22;71195;52.528;5.704;2023-09-12T13:26:41;29.10;58.40
81800;DHT22;71195;52.528;5.704;2023-09-12T13:29:13;29.00;58.30
81800;DHT22;71195;52.528;5.704;2023-09-12T13:31:42;29.00;58.40
81800;DHT22;71195;52.528;5.704;2023-09-12T13:34:14;29.00;58.30
81800;DHT22;71195;52.528;5.704;2023-09-12T13:36:47;29.00;58.30
81800;DHT22;71195;52.528;5.704;2023-09-12T13:39:29;28.90;58.30
81800;DHT22;71195;52.528;5.704;2023-09-12T13:41:58;28.80;58.20
81800;DHT22;71195;52.528;5.704;2023-09-12T13:44:29;28.60;58.50
81800;DHT22;71195;52.528;5.704;2023-09-12T13:46:59;28.50;58.60
81800;DHT22;71195;52.528;5.704;2023-09-12T13:49:28;28.50;58.70
81800;DHT22;71195;52.528;5.704;2023-09-12T13:52:00;28.30;58.80
81800;DHT22;71195;52.528;5.704;2023-09-12T13:54:29;28.30;58.90
81800;DHT22;71195;52.528;5.704;2023-09-12T13:56:58;28.30;59.00
81800;DHT22;71195;52.528;5.704;2023-09-12T13:59:29;28.20;58.90
81800;DHT22;71195;52.528;5.704;2023-09-12T14:01:58;28.10;58.90
81800;DHT22;71195;52.528;5.704;2023-09-12T14:04:27;28.10;58.90
81800;DHT22;71195;52.528;5.704;2023-09-12T14:06:54;28.00;59.00
81800;DHT22;71195;52.528;5.704;2023-09-12T14:09:32;28.00;59.10
81800;DHT22;71195;52.528;5.704;2023-09-12T14:12:01;28.00;59.00
81800;DHT22;71195;52.528;5.704;2023-09-12T14:14:34;27.90;59.00
81800;DHT22;71195;52.528;5.704;2023-09-12T14:17:03;27.90;59.00
81800;DHT22;71195;52.528;5.704;2023-09-12T14:19:33;27.80;59.00
81800;DHT22;71195;52.528;5.704;2023-09-12T14:22:03;27.80;59.00
81800;DHT22;71195;52.528;5.704;2023-09-12T14:24:35;27.90;59.00
81800;DHT22;71195;52.528;5.704;2023-09-12T14:27:04;28.00;58.90
81800;DHT22;71195;52.528;5.704;2023-09-12T14:29:34;28.30;58.60
81800;DHT22;71195;52.528;5.704;2023-09-12T14:32:05;28.50;58.40
81800;DHT22;71195;52.528;5.704;2023-09-12T14:34:35;28.60;58.10
81800;DHT22;71195;52.528;5.704;2023-09-12T14:37:04;28.90;57.80
81800;DHT22;71195;52.528;5.704;2023-09-12T14:39:36;29.00;57.60
81800;DHT22;71195;52.528;5.704;2023-09-12T14:42:06;29.10;57.20
81800;DHT22;71195;52.528;5.704;2023-09-12T14:44:38;29.10;57.00
81800;DHT22;71195;52.528;5.704;2023-09-12T14:47:07;29.20;56.70
81800;DHT22;71195;52.528;5.704;2023-09-12T14:49:37;29.40;56.50
81800;DHT22;71195;52.528;5.704;2023-09-12T14:52:06;29.50;56.30
81800;DHT22;71195;52.528;5.704;2023-09-12T14:54:38;29.50;56.10
81800;DHT22;71195;52.528;5.704;2023-09-12T14:57:07;29.40;56.00
81800;DHT22;71195;52.528;5.704;2023-09-12T14:59:36;29.30;56.10
81800;DHT22;71195;52.528;5.704;2023-09-12T15:02:16;29.30;56.10
81800;DHT22;71195;52.528;5.704;2023-09-12T15:04:48;29.10;56.10
81800;DHT22;71195;52.528;5.704;2023-09-12T15:07:17;29.00;56.40
81800;DHT22;71195;52.528;5.704;2023-09-12T15:09:49;28.90;56.50
81800;DHT22;71195;52.528;5.704;2023-09-12T15:12:20;28.70;56.70
81800;DHT22;71195;52.528;5.704;2023-09-12T15:14:49;28.60;56.90
81800;DHT22;71195;52.528;5.704;2023-09-12T15:17:19;28.50;57.10
81800;DHT22;71195;52.528;5.704;2023-09-12T15:19:48;28.30;57.30
81800;DHT22;71195;52.528;5.704;2023-09-12T15:22:17;28.20;57.60
81800;DHT22;71195;52.528;5.704;2023-09-12T15:24:49;28.10;57.80
81800;DHT22;71195;52.528;5.704;2023-09-12T15:27:18;28.00;58.00
81800;DHT22;71195;52.528;5.704;2023-09-12T15:29:48;27.80;58.20
81800;DHT22;71195;52.528;5.704;2023-09-12T15:32:17;27.80;58.20
81800;DHT22;71195;52.528;5.704;2023-09-12T15:34:46;27.70;58.40
81800;DHT22;71195;52.528;5.704;2023-09-12T15:37:16;27.60;58.40
81800;DHT22;71195;52.528;5.704;2023-09-12T15:39:45;27.50;58.40
81800;DHT22;71195;52.528;5.704;2023-09-12T15:42:17;27.50;58.50
81800;DHT22;71195;52.528;5.704;2023-09-12T15:44:46;27.50;58.50
81800;DHT22;71195;52.528;5.704;2023-09-12T15:47:15;27.50;58.60
81800;DHT22;71195;52.528;5.704;2023-09-12T15:49:44;27.30;58.70
81800;DHT22;71195;52.528;5.704;2023-09-12T15:52:14;27.20;58.90
81800;DHT22;71195;52.528;5.704;2023-09-12T15:54:43;27.20;59.00
81800;DHT22;71195;52.528;5.704;2023-09-12T15:57:15;27.10;59.10